createdAt,value
2018-12-10T00:01:52.491Z,93874.41
2018-12-10T00:04:23.799Z,93881.80
2018-12-10T00:06:55.329Z,93874.47
2018-12-10T00:09:24.760Z,93877.16
2018-12-10T00:11:54.073Z,93872.92
2018-12-10T00:14:23.675Z,93869.32
2018-12-10T00:16:53.156Z,93872.92
2018-12-10T00:19:22.551Z,93871.89
2018-12-10T00:21:51.888Z,93864.55
2018-12-10T00:24:21.435Z,93854.34
2018-12-10T00:26:50.752Z,93851.73
2018-12-10T00:29:20.159Z,93856.33
2018-12-10T00:31:49.463Z,93861.36
2018-12-10T00:34:18.811Z,93869.98
2018-12-10T00:36:48.269Z,93875.97
2018-12-10T00:39:17.714Z,93881.86
2018-12-10T00:41:47.154Z,93875.63
2018-12-10T00:44:16.487Z,93881.29
2018-12-10T00:46:45.685Z,93874.60
2018-12-10T00:49:15.007Z,93875.95
2018-12-10T00:51:44.324Z,93875.63
2018-12-10T00:54:13.737Z,93866.33
2018-12-10T00:56:43.139Z,93864.41
2018-12-10T00:59:12.428Z,93854.50
2018-12-10T01:01:41.970Z,93854.20
2018-12-10T01:04:11.446Z,93850.66
2018-12-10T01:06:40.993Z,93855.87
2018-12-10T01:09:10.202Z,93844.58
2018-12-10T01:11:39.428Z,93836.88
2018-12-10T01:14:08.607Z,93838.37
2018-12-10T01:16:37.859Z,93845.81
2018-12-10T01:19:07.360Z,93834.73
2018-12-10T01:21:36.644Z,93830.95
2018-12-10T01:24:06.355Z,93823.23
2018-12-10T01:26:35.730Z,93817.39
2018-12-10T01:29:05.055Z,93814.02
2018-12-10T01:31:34.776Z,93814.36
2018-12-10T01:34:04.360Z,93818.13
2018-12-10T01:36:34.029Z,93811.52
2018-12-10T01:39:04.673Z,93809.19
2018-12-10T01:41:35.168Z,93807.83
2018-12-10T01:44:04.610Z,93806.31
2018-12-10T01:46:33.888Z,93812.58
2018-12-10T01:49:03.388Z,93808.00
2018-12-10T01:51:32.835Z,93810.44
2018-12-10T01:54:02.140Z,93813.14
2018-12-10T01:56:31.570Z,93805.63
2018-12-10T01:59:00.785Z,93811.66
2018-12-10T02:01:30.224Z,93810.37
2018-12-10T02:03:59.704Z,93808.33
2018-12-10T02:06:29.191Z,93805.24
2018-12-10T02:08:58.497Z,93797.02
2018-12-10T02:11:28.171Z,93797.01
2018-12-10T02:13:57.527Z,93787.13
2018-12-10T02:16:26.984Z,93790.44
2018-12-10T02:18:56.280Z,93787.77
2018-12-10T02:21:25.607Z,93780.55
2018-12-10T02:23:54.926Z,93765.38
2018-12-10T02:26:24.697Z,93766.52
2018-12-10T02:28:59.280Z,93756.13
2018-12-10T02:31:28.596Z,93750.28
2018-12-10T02:33:57.920Z,93745.14
2018-12-10T02:36:27.212Z,93737.09
2018-12-10T02:38:56.542Z,93736.59
2018-12-10T02:41:26.073Z,93747.41
2018-12-10T02:43:55.623Z,93747.38
2018-12-10T02:46:24.869Z,93743.91
2018-12-10T02:48:54.343Z,93737.69
2018-12-10T02:51:23.777Z,93738.41
2018-12-10T02:53:53.155Z,93718.64
2018-12-10T02:56:22.585Z,93722.48
2018-12-10T02:58:51.852Z,93716.80
2018-12-10T03:01:21.257Z,93727.77
2018-12-10T03:03:50.690Z,93722.48
2018-12-10T03:06:20.040Z,93722.36
2018-12-10T03:08:49.536Z,93715.86
2018-12-10T03:11:18.809Z,93730.86
2018-12-10T03:13:48.048Z,93727.06
2018-12-10T03:16:17.215Z,93721.94
2018-12-10T03:18:46.583Z,93719.67
2018-12-10T03:21:15.847Z,93720.73
2018-12-10T03:23:45.329Z,93719.05
2018-12-10T03:26:14.589Z,93730.38
2018-12-10T03:28:44.031Z,93727.17
2018-12-10T03:31:13.442Z,93739.50
2018-12-10T03:33:42.795Z,93742.06
2018-12-10T03:36:12.184Z,93749.49
2018-12-10T03:38:41.609Z,93746.16
2018-12-10T03:41:10.865Z,93763.79
2018-12-10T03:43:40.232Z,93770.66
2018-12-10T03:46:09.463Z,93768.81
2018-12-10T03:48:38.969Z,93771.45
2018-12-10T03:51:08.402Z,93784.09
2018-12-10T03:53:37.664Z,93786.56
2018-12-10T03:56:07.008Z,93786.84
2018-12-10T03:58:36.363Z,93783.52
2018-12-10T04:01:05.686Z,93785.06
2018-12-10T04:03:35.140Z,93785.04
2018-12-10T04:06:04.441Z,93788.73
2018-12-10T04:08:33.968Z,93790.03
2018-12-10T04:11:03.283Z,93779.16
2018-12-10T04:13:32.494Z,93785.88
2018-12-10T04:16:01.816Z,93777.94
2018-12-10T04:18:31.225Z,93782.53
2018-12-10T04:21:00.531Z,93775.89
2018-12-10T04:23:29.943Z,93773.95
2018-12-10T04:26:01.421Z,93781.50
2018-12-10T04:28:30.652Z,93787.47
2018-12-10T04:30:59.935Z,93783.09
2018-12-10T04:33:29.311Z,93789.97
2018-12-10T04:35:58.729Z,93791.91
2018-12-10T04:38:28.813Z,93784.50
2018-12-10T04:40:58.127Z,93785.54
2018-12-10T04:43:28.855Z,93782.23
2018-12-10T04:45:58.357Z,93779.86
2018-12-10T04:48:27.793Z,93782.91
2018-12-10T04:50:57.068Z,93781.56
2018-12-10T04:53:26.533Z,93783.42
2018-12-10T04:55:55.962Z,93778.20
2018-12-10T04:58:25.407Z,93779.55
2018-12-10T05:00:54.711Z,93774.02
2018-12-10T05:03:24.124Z,93767.84
2018-12-10T05:05:53.588Z,93769.88
2018-12-10T05:08:22.870Z,93767.13
2018-12-10T05:10:52.718Z,93760.38
2018-12-10T05:13:22.051Z,93762.02
2018-12-10T05:15:51.484Z,93755.39
2018-12-10T05:18:21.440Z,93754.49
2018-12-10T05:20:50.687Z,93747.46
2018-12-10T05:23:20.102Z,93740.06
2018-12-10T05:25:49.524Z,93735.82
2018-12-10T05:28:19.160Z,93743.84
2018-12-10T05:30:48.735Z,93743.75
2018-12-10T05:33:18.138Z,93747.70
2018-12-10T05:35:47.739Z,93749.30
2018-12-10T05:38:16.998Z,93750.78
2018-12-10T05:40:46.614Z,93752.07
2018-12-10T05:43:16.060Z,93759.75
2018-12-10T05:45:45.483Z,93766.09
2018-12-10T05:48:14.775Z,93770.49
2018-12-10T05:50:44.440Z,93777.13
2018-12-10T05:53:13.827Z,93781.78
2018-12-10T05:55:43.412Z,93786.78
2018-12-10T05:58:13.924Z,93788.70
2018-12-10T06:00:43.675Z,93784.55
2018-12-10T06:03:13.192Z,93786.74
2018-12-10T06:05:42.403Z,93794.47
2018-12-10T06:08:12.279Z,93795.89
2018-12-10T06:10:41.501Z,93800.60
2018-12-10T06:13:10.921Z,93801.30
2018-12-10T06:15:40.590Z,93818.00
2018-12-10T06:18:09.942Z,93819.47
2018-12-10T06:20:39.327Z,93815.78
2018-12-10T06:23:08.720Z,93819.94
2018-12-10T06:25:38.150Z,93820.58
2018-12-10T06:28:07.575Z,93828.62
2018-12-10T06:30:36.969Z,93832.11
2018-12-10T06:33:06.231Z,93832.62
2018-12-10T06:35:36.029Z,93831.42
2018-12-10T06:38:05.328Z,93836.29
2018-12-10T06:40:34.567Z,93839.72
2018-12-10T06:43:04.613Z,93839.13
2018-12-10T06:45:33.988Z,93840.58
2018-12-10T06:48:03.496Z,93849.75
2018-12-10T06:50:32.987Z,93852.56
2018-12-10T06:53:02.232Z,93859.56
2018-12-10T06:55:31.582Z,93866.25
2018-12-10T06:58:01.471Z,93867.04
2018-12-10T07:00:30.856Z,93871.14
2018-12-10T07:03:00.128Z,93879.89
2018-12-10T07:05:29.904Z,93882.89
2018-12-10T07:07:59.115Z,93881.97
2018-12-10T07:10:28.457Z,93895.44
2018-12-10T07:12:58.197Z,93898.89
2018-12-10T07:15:27.452Z,93899.56
2018-12-10T07:17:56.919Z,93904.31
2018-12-10T07:20:26.504Z,93907.05
2018-12-10T07:22:55.956Z,93918.91
2018-12-10T07:25:25.247Z,93915.17
2018-12-10T07:27:55.260Z,93928.77
2018-12-10T07:30:24.517Z,93933.08
2018-12-10T07:32:53.771Z,93935.48
2018-12-10T07:35:23.565Z,93937.86
2018-12-10T07:37:53.023Z,93938.62
2018-12-10T07:40:22.364Z,93945.58
2018-12-10T07:42:52.145Z,93949.74
2018-12-10T07:45:21.339Z,93956.61
2018-12-10T07:47:50.545Z,93956.64
2018-12-10T07:50:20.167Z,93962.48
2018-12-10T07:52:49.428Z,93961.88
2018-12-10T07:55:18.753Z,93966.83
2018-12-10T07:57:48.122Z,93964.89
2018-12-10T08:00:17.880Z,93972.11
2018-12-10T08:02:47.319Z,93976.39
2018-12-10T08:05:16.669Z,93976.59
2018-12-10T08:07:46.511Z,93974.80
2018-12-10T08:10:16.182Z,93987.36
2018-12-10T08:12:45.875Z,93977.44
2018-12-10T08:15:15.459Z,93984.16
2018-12-10T08:17:44.966Z,93988.05
2018-12-10T08:20:14.626Z,93991.02
2018-12-10T08:22:44.693Z,93996.92
2018-12-10T08:25:14.205Z,94002.70
2018-12-10T08:27:43.403Z,93994.50
2018-12-10T08:30:12.990Z,93996.77
2018-12-10T08:32:42.250Z,94005.06
2018-12-10T08:35:11.753Z,94002.22
2018-12-10T08:37:41.582Z,94008.91
2018-12-10T08:40:11.090Z,94007.33
2018-12-10T08:42:40.279Z,94009.82
2018-12-10T08:45:10.458Z,94008.53
2018-12-10T08:47:39.612Z,94009.70
2018-12-10T08:50:09.016Z,93999.86
2018-12-10T08:52:38.682Z,94013.56
2018-12-10T08:55:08.076Z,94010.42
2018-12-10T08:57:37.462Z,94012.09
2018-12-10T09:00:07.660Z,94001.08
2018-12-10T09:02:36.999Z,94009.16
2018-12-10T09:05:06.714Z,93995.66
2018-12-10T09:07:36.502Z,93995.61
2018-12-10T09:10:07.226Z,93996.27
2018-12-10T09:12:37.087Z,93991.34
2018-12-10T09:15:06.928Z,93996.64
2018-12-10T09:17:36.973Z,93991.63
2018-12-10T09:20:06.549Z,93999.20
2018-12-10T09:22:35.802Z,93999.11
2018-12-10T09:25:06.215Z,93996.84
2018-12-10T09:27:35.580Z,93990.56
2018-12-10T09:30:06.297Z,93992.51
2018-12-10T09:32:35.745Z,93994.56
2018-12-10T09:35:06.009Z,93997.30
2018-12-10T09:37:35.846Z,93990.33
2018-12-10T09:40:06.721Z,93990.86
2018-12-10T09:42:35.996Z,93988.45
2018-12-10T09:45:06.675Z,93989.73
2018-12-10T09:47:36.286Z,93993.39
2018-12-10T09:50:06.123Z,93988.89
2018-12-10T09:52:35.467Z,93994.34
2018-12-10T09:55:04.804Z,93990.30
2018-12-10T09:57:34.608Z,93989.98
2018-12-10T10:00:04.391Z,93994.30
2018-12-10T10:02:33.666Z,93994.56
2018-12-10T10:05:03.237Z,93990.98
2018-12-10T10:07:32.625Z,93993.92
2018-12-10T10:10:03.754Z,93992.70
2018-12-10T10:12:33.197Z,93991.97
2018-12-10T10:15:02.558Z,93980.69
2018-12-10T10:17:32.377Z,93986.03
2018-12-10T10:20:01.757Z,93979.59
2018-12-10T10:22:31.254Z,93980.70
2018-12-10T10:25:00.653Z,93982.27
2018-12-10T10:27:29.808Z,93976.46
2018-12-10T10:29:59.058Z,93968.75
2018-12-10T10:32:28.816Z,93968.79
2018-12-10T10:34:58.188Z,93968.73
2018-12-10T10:37:27.639Z,93967.55
2018-12-10T10:39:57.423Z,93957.17
2018-12-10T10:42:26.926Z,93956.67
2018-12-10T10:44:56.534Z,93958.98
2018-12-10T10:47:25.906Z,93955.88
2018-12-10T10:49:55.179Z,93952.20
2018-12-10T10:52:24.635Z,93958.66
2018-12-10T10:54:54.011Z,93964.66
2018-12-10T10:57:23.341Z,93947.00
2018-12-10T10:59:52.621Z,93638.06
2018-12-10T11:02:27.056Z,93944.36
2018-12-10T11:04:56.375Z,93950.30
2018-12-10T11:07:25.716Z,93955.30
2018-12-10T11:09:55.266Z,93961.14
2018-12-10T11:12:24.645Z,93958.63
2018-12-10T11:14:53.871Z,93954.67
2018-12-10T11:17:23.201Z,93956.77
2018-12-10T11:19:52.427Z,93947.86
2018-12-10T11:22:21.774Z,93953.77
2018-12-10T11:24:50.995Z,93950.95
2018-12-10T11:27:20.343Z,93949.50
2018-12-10T11:29:49.672Z,93955.70
2018-12-10T11:32:19.029Z,93942.41
2018-12-10T11:34:48.513Z,93955.81
2018-12-10T11:37:18.012Z,93960.38
2018-12-10T11:39:47.244Z,93966.63
2018-12-10T11:42:16.565Z,93959.77
2018-12-10T11:44:45.920Z,93963.72
2018-12-10T11:47:15.268Z,93963.80
2018-12-10T11:49:44.547Z,93965.28
2018-12-10T11:52:14.080Z,93966.02
2018-12-10T11:54:43.509Z,93962.44
2018-12-10T11:57:12.863Z,93966.64
2018-12-10T11:59:42.109Z,93966.00
2018-12-10T12:02:11.391Z,93959.34
2018-12-10T12:04:40.796Z,93963.64
2018-12-10T12:07:12.153Z,93963.76
2018-12-10T12:09:41.459Z,93966.36
2018-12-10T12:12:10.971Z,93958.66
2018-12-10T12:14:40.464Z,93962.63
2018-12-10T12:17:09.876Z,93968.00
2018-12-10T12:19:45.864Z,93965.79
2018-12-10T12:22:15.372Z,93967.70
2018-12-10T12:24:44.891Z,93963.91
2018-12-10T12:27:14.401Z,93970.25
2018-12-10T12:29:43.711Z,93961.70
2018-12-10T12:32:13.065Z,93961.28
2018-12-10T12:34:42.551Z,93963.20
2018-12-10T12:37:11.861Z,93960.48
2018-12-10T12:39:41.285Z,93966.07
2018-12-10T12:42:10.766Z,93964.22
2018-12-10T12:44:40.042Z,93957.13
2018-12-10T12:47:09.335Z,93961.91
2018-12-10T12:49:38.673Z,93958.33
2018-12-10T12:52:07.959Z,93960.04
2018-12-10T12:54:37.411Z,93887.09
2018-12-10T12:57:06.744Z,93960.61
2018-12-10T12:59:36.214Z,93891.40
2018-12-10T13:02:05.411Z,93969.19
2018-12-10T13:04:34.968Z,93970.12
2018-12-10T13:07:04.223Z,93963.84
2018-12-10T13:09:33.507Z,93971.88
2018-12-10T13:12:02.983Z,93975.44
2018-12-10T13:14:32.344Z,93971.36
2018-12-10T13:17:01.839Z,93970.25
2018-12-10T13:19:31.269Z,93972.52
2018-12-10T13:22:00.727Z,93968.56
2018-12-10T13:24:30.163Z,93975.89
2018-12-10T13:26:59.476Z,93978.84
2018-12-10T13:29:31.346Z,93971.22
2018-12-10T13:32:00.518Z,93973.09
2018-12-10T13:34:29.770Z,93983.41
2018-12-10T13:36:59.213Z,93975.95
2018-12-10T13:39:28.599Z,93974.78
2018-12-10T13:41:59.017Z,93979.37
2018-12-10T13:44:28.372Z,93981.50
2018-12-10T13:46:57.776Z,93983.40
2018-12-10T13:49:27.229Z,93975.96
2018-12-10T13:51:56.715Z,93979.18
2018-12-10T13:54:26.139Z,93979.21
2018-12-10T13:56:55.513Z,93984.75
2018-12-10T13:59:24.714Z,93985.67
2018-12-10T14:01:54.138Z,93985.01
2018-12-10T14:04:27.946Z,93989.99
2018-12-10T14:06:57.227Z,93983.98
2018-12-10T14:09:26.526Z,93984.70
2018-12-10T14:11:55.920Z,94007.44
2018-12-10T14:14:25.338Z,93998.48
2018-12-10T14:16:54.892Z,93992.32
2018-12-10T14:19:24.396Z,93996.77
2018-12-10T14:21:53.855Z,93994.78
2018-12-10T14:24:24.403Z,94004.80
2018-12-10T14:26:53.921Z,94003.73
2018-12-10T14:29:23.160Z,94003.08
2018-12-10T14:31:52.547Z,94011.75
2018-12-10T14:34:26.060Z,94007.02
2018-12-10T14:36:55.536Z,93990.46
2018-12-10T14:39:25.030Z,94000.75
2018-12-10T14:41:54.576Z,94005.88
2018-12-10T14:44:23.899Z,94002.30
2018-12-10T14:46:53.287Z,94001.72
2018-12-10T14:49:22.692Z,94003.57
2018-12-10T14:51:52.023Z,94000.93
2018-12-10T14:54:21.322Z,94004.80
2018-12-10T14:56:50.583Z,94009.97
2018-12-10T14:59:20.086Z,94015.53
2018-12-10T15:01:50.148Z,94020.05
2018-12-10T15:04:19.554Z,94016.86
2018-12-10T15:06:48.856Z,94019.14
2018-12-10T15:09:18.153Z,94022.92
2018-12-10T15:11:47.513Z,94032.56
2018-12-10T15:14:16.832Z,94029.28
2018-12-10T15:16:46.288Z,94042.03
2018-12-10T15:19:15.666Z,94050.21
2018-12-10T15:21:44.828Z,94043.97
2018-12-10T15:24:14.189Z,94058.11
2018-12-10T15:26:43.602Z,94056.91
2018-12-10T15:29:13.220Z,94060.38
2018-12-10T15:31:42.620Z,94058.44
2018-12-10T15:34:11.984Z,94061.53
2018-12-10T15:36:41.438Z,94067.20
2018-12-10T15:39:10.698Z,94068.41
2018-12-10T15:41:40.262Z,94060.19
2018-12-10T15:44:09.749Z,94073.28
2018-12-10T15:46:39.147Z,94065.02
2018-12-10T15:49:08.648Z,94075.28
2018-12-10T15:51:37.875Z,94073.04
2018-12-10T15:54:07.131Z,94066.25
2018-12-10T15:56:36.683Z,94075.03
2018-12-10T15:59:06.146Z,94084.11
2018-12-10T16:01:35.583Z,94080.70
2018-12-10T16:04:04.815Z,94086.30
2018-12-10T16:06:34.191Z,94084.75
2018-12-10T16:09:05.230Z,94088.76
2018-12-10T16:11:35.841Z,94090.84
2018-12-10T16:14:06.268Z,94087.13
2018-12-10T16:16:35.844Z,94088.85
2018-12-10T16:19:05.079Z,94089.28
2018-12-10T16:21:34.422Z,94095.20
2018-12-10T16:24:03.968Z,94091.29
2018-12-10T16:26:33.321Z,94091.98
2018-12-10T16:29:02.579Z,94100.63
2018-12-10T16:31:32.079Z,94099.19
2018-12-10T16:34:01.404Z,94102.89
2018-12-10T16:36:30.879Z,94103.10
2018-12-10T16:39:00.197Z,94099.87
2018-12-10T16:41:29.880Z,94100.69
2018-12-10T16:43:59.341Z,94104.66
2018-12-10T16:46:28.868Z,94104.06
2018-12-10T16:48:58.070Z,94107.07
2018-12-10T16:51:27.415Z,94104.13
2018-12-10T16:53:56.667Z,94111.07
2018-12-10T16:56:26.250Z,94118.14
2018-12-10T16:58:55.516Z,94112.92
2018-12-10T17:01:24.924Z,94118.55
2018-12-10T17:03:54.747Z,94122.22
2018-12-10T17:06:24.322Z,94127.11
2018-12-10T17:08:53.872Z,94120.23
2018-12-10T17:11:23.666Z,94131.04
2018-12-10T17:13:54.051Z,94135.69
2018-12-10T17:16:23.815Z,94132.23
2018-12-10T17:18:53.078Z,94135.54
2018-12-10T17:21:22.498Z,94128.09
2018-12-10T17:23:52.071Z,94135.77
2018-12-10T17:26:21.517Z,94142.97
2018-12-10T17:28:50.926Z,94134.61
2018-12-10T17:31:20.590Z,94126.37
2018-12-10T17:33:50.017Z,94144.44
2018-12-10T17:36:19.799Z,94137.01
2018-12-10T17:38:48.994Z,94150.30
2018-12-10T17:41:18.346Z,94144.17
2018-12-10T17:43:47.974Z,94157.23
2018-12-10T17:46:17.185Z,94145.33
2018-12-10T17:48:46.556Z,94151.24
2018-12-10T17:51:16.087Z,94156.59
2018-12-10T17:53:45.575Z,94148.83
2018-12-10T17:56:14.954Z,94155.22
2018-12-10T17:58:44.780Z,94159.78
2018-12-10T18:01:14.178Z,94160.16
2018-12-10T18:03:43.595Z,94165.08
2018-12-10T18:06:13.316Z,94150.72
2018-12-10T18:08:42.683Z,94164.66
2018-12-10T18:11:12.179Z,94173.44
2018-12-10T18:13:41.887Z,94169.34
2018-12-10T18:16:11.096Z,94171.35
2018-12-10T18:18:40.396Z,94170.19
2018-12-10T18:21:10.615Z,94173.84
2018-12-10T18:23:40.170Z,94169.44
2018-12-10T18:26:09.491Z,94168.77
2018-12-10T18:28:38.958Z,94173.71
2018-12-10T18:31:08.895Z,94172.33
2018-12-10T18:33:38.201Z,94168.95
2018-12-10T18:36:08.152Z,94169.55
2018-12-10T18:38:37.390Z,94168.52
2018-12-10T18:41:06.833Z,94169.78
2018-12-10T18:43:36.351Z,94184.39
2018-12-10T18:46:05.704Z,94178.31
2018-12-10T18:48:35.060Z,94185.83
2018-12-10T18:51:05.841Z,94186.39
2018-12-10T18:53:35.083Z,94188.94
2018-12-10T18:56:04.738Z,94188.88
2018-12-10T18:58:34.191Z,94191.49
2018-12-10T19:01:03.566Z,94191.39
2018-12-10T19:03:32.897Z,94191.03
2018-12-10T19:06:02.619Z,94198.71
2018-12-10T19:08:31.964Z,94196.93
2018-12-10T19:11:01.615Z,94213.44
2018-12-10T19:13:30.857Z,94202.02
2018-12-10T19:16:00.481Z,94207.47
2018-12-10T19:18:30.500Z,94207.49
2018-12-10T19:21:00.175Z,94214.20
2018-12-10T19:23:29.347Z,94210.33
2018-12-10T19:25:59.256Z,94213.06
2018-12-10T19:28:30.193Z,94224.99
2018-12-10T19:30:59.814Z,94215.91
2018-12-10T19:33:29.275Z,94212.30
2018-12-10T19:35:58.558Z,94216.35
2018-12-10T19:38:28.219Z,94218.12
2018-12-10T19:40:57.689Z,94209.23
2018-12-10T19:43:26.968Z,94152.90
2018-12-10T19:45:56.781Z,94218.05
2018-12-10T19:48:26.229Z,94214.69
2018-12-10T19:50:55.563Z,94220.12
2018-12-10T19:53:24.839Z,94214.58
2018-12-10T19:55:54.327Z,94217.95
2018-12-10T19:58:23.924Z,94216.28
2018-12-10T20:00:53.300Z,94230.47
2018-12-10T20:03:22.725Z,94223.23
2018-12-10T20:05:57.401Z,94216.97
2018-12-10T20:08:26.633Z,94213.03
2018-12-10T20:10:55.941Z,94201.81
2018-12-10T20:13:25.605Z,94208.00
2018-12-10T20:15:55.096Z,94205.60
2018-12-10T20:18:24.369Z,94199.47
2018-12-10T20:20:54.044Z,94198.98
2018-12-10T20:23:23.410Z,94198.70
2018-12-10T20:25:52.639Z,94199.80
2018-12-10T20:28:22.653Z,94198.58
2018-12-10T20:30:52.010Z,94211.70
2018-12-10T20:33:21.475Z,94190.96
2018-12-10T20:35:51.415Z,94207.76
2018-12-10T20:38:20.929Z,94195.16
2018-12-10T20:40:50.333Z,94211.39
2018-12-10T20:43:20.038Z,94207.27
2018-12-10T20:45:49.325Z,94205.29
2018-12-10T20:48:18.997Z,94207.84
2018-12-10T20:50:48.343Z,94217.86
2018-12-10T20:53:17.652Z,94212.60
2018-12-10T20:55:47.520Z,94217.75
2018-12-10T20:58:16.813Z,94224.30
2018-12-10T21:00:46.263Z,94220.81
2018-12-10T21:03:16.222Z,94226.75
2018-12-10T21:05:50.656Z,94216.19
2018-12-10T21:08:20.535Z,94226.28
2018-12-10T21:10:50.053Z,94214.69
2018-12-10T21:13:19.568Z,94222.02
2018-12-10T21:15:49.297Z,94228.86
2018-12-10T21:18:18.634Z,94239.14
2018-12-10T21:20:48.235Z,94223.70
2018-12-10T21:23:17.933Z,94232.52
2018-12-10T21:25:47.494Z,94237.16
2018-12-10T21:28:16.879Z,94231.30
2018-12-10T21:30:46.580Z,94238.23
2018-12-10T21:33:16.349Z,94235.08
2018-12-10T21:35:45.678Z,94233.89
2018-12-10T21:38:14.867Z,94230.93
2018-12-10T21:40:44.536Z,94237.95
2018-12-10T21:43:13.807Z,94232.41
2018-12-10T21:45:43.319Z,94231.23
2018-12-10T21:48:13.154Z,94234.80
2018-12-10T21:50:42.529Z,94235.19
2018-12-10T21:53:12.075Z,94230.13
2018-12-10T21:55:42.001Z,94232.72
2018-12-10T21:58:11.460Z,94238.05
2018-12-10T22:00:40.759Z,94234.09
2018-12-10T22:03:10.703Z,94233.80
2018-12-10T22:05:40.079Z,94236.75
2018-12-10T22:08:10.575Z,94230.81
2018-12-10T22:10:40.566Z,94250.11
2018-12-10T22:13:09.970Z,94242.20
2018-12-10T22:15:39.331Z,94235.66
2018-12-10T22:18:08.984Z,94242.41
2018-12-10T22:20:38.443Z,94244.07
2018-12-10T22:23:07.693Z,94251.31
2018-12-10T22:25:37.300Z,94240.92
2018-12-10T22:28:06.655Z,94226.38
2018-12-10T22:30:35.981Z,94239.89
2018-12-10T22:33:05.503Z,94245.95
2018-12-10T22:35:34.763Z,94246.33
2018-12-10T22:38:04.120Z,94244.24
2018-12-10T22:40:34.344Z,94249.52
2018-12-10T22:43:03.492Z,94248.15
2018-12-10T22:45:33.231Z,94253.49
2018-12-10T22:48:02.626Z,94239.91
2018-12-10T22:50:31.922Z,94250.22
2018-12-10T22:53:02.395Z,94244.09
2018-12-10T22:55:31.754Z,94251.89
2018-12-10T22:58:01.273Z,94249.69
2018-12-10T23:00:36.233Z,94259.22
2018-12-10T23:03:07.627Z,94251.11
2018-12-10T23:05:38.072Z,94253.69
2018-12-10T23:08:09.369Z,94247.32
2018-12-10T23:10:38.956Z,94250.27
2018-12-10T23:13:08.176Z,94259.51
2018-12-10T23:15:37.637Z,94252.34
2018-12-10T23:18:07.459Z,93979.36
2018-12-10T23:20:36.755Z,94263.50
2018-12-10T23:23:05.977Z,94264.73
2018-12-10T23:25:35.484Z,94266.45
2018-12-10T23:28:04.743Z,94268.29
2018-12-10T23:30:34.505Z,94270.30
2018-12-10T23:33:03.804Z,94270.20
2018-12-10T23:35:33.094Z,94263.77
2018-12-10T23:38:02.327Z,94263.27
2018-12-10T23:40:31.678Z,94190.80
2018-12-10T23:43:06.313Z,94263.40
2018-12-10T23:45:35.727Z,94271.63
2018-12-10T23:48:05.393Z,94269.94
2018-12-10T23:50:34.803Z,94262.81
2018-12-10T23:53:04.156Z,94249.83
2018-12-10T23:55:33.727Z,94266.08
2018-12-10T23:58:03.176Z,94279.91
